Bella Bella, Bella Bella (Campbell Island) Airport (CBBC)

NameBella Bella (Campbell Island) Airport
CityBella Bella
CountryCanada
ICAOCBBC
IATA
Altitude43 m
CoordinatesGoogle Map
Live Air TrafficLiveATC.net
METARCBBC 172000Z AUTO 13004KT 090V170 9SM FEW190 14/09 A3016 RMK SLP215
2018-10-17 20:00:00 Wind: East-Southeast (130°) 2.06 m/s - Visibility: 14484.06 m - Temperature: 14 °C - Dew point: 9 °C - Humidity: 72.1% - Pressure: 1021.33 hPa

Sorry, no flights used the airport in this database.